sensor_id;sensor_type;location;lat;lon;timestamp;P1;durP1;ratioP1;P2;durP2;ratioP2
43554;SDS011;35085;40.398;-3.702;2022-12-29T00:03:19;9.82;;;4.90;;
43554;SDS011;35085;40.398;-3.702;2022-12-29T00:13:51;10.02;;;4.65;;
43554;SDS011;35085;40.398;-3.702;2022-12-29T00:24:19;7.13;;;2.90;;
43554;SDS011;35085;40.398;-3.702;2022-12-29T00:34:59;6.55;;;2.80;;
43554;SDS011;35085;40.398;-3.702;2022-12-29T00:45:16;6.90;;;3.05;;
43554;SDS011;35085;40.398;-3.702;2022-12-29T00:55:46;7.50;;;3.10;;
43554;SDS011;35085;40.398;-3.702;2022-12-29T01:05:56;13.20;;;3.05;;
43554;SDS011;35085;40.398;-3.702;2022-12-29T01:16:25;14.48;;;4.85;;
43554;SDS011;35085;40.398;-3.702;2022-12-29T01:26:35;12.48;;;5.07;;
43554;SDS011;35085;40.398;-3.702;2022-12-29T01:37:05;14.88;;;6.57;;
43554;SDS011;35085;40.398;-3.702;2022-12-29T01:47:16;17.45;;;6.95;;
43554;SDS011;35085;40.398;-3.702;2022-12-29T01:57:47;15.88;;;6.60;;
43554;SDS011;35085;40.398;-3.702;2022-12-29T02:07:58;18.10;;;7.20;;
43554;SDS011;35085;40.398;-3.702;2022-12-29T02:18:38;17.48;;;7.45;;
43554;SDS011;35085;40.398;-3.702;2022-12-29T03:00:10;12.40;;;5.40;;
43554;SDS011;35085;40.398;-3.702;2022-12-29T03:10:29;13.23;;;6.00;;
43554;SDS011;35085;40.398;-3.702;2022-12-29T03:31:19;10.43;;;3.97;;
43554;SDS011;35085;40.398;-3.702;2022-12-29T03:41:54;15.40;;;6.07;;
43554;SDS011;35085;40.398;-3.702;2022-12-29T03:52:08;14.93;;;6.65;;
43554;SDS011;35085;40.398;-3.702;2022-12-29T04:02:40;19.80;;;7.93;;
43554;SDS011;35085;40.398;-3.702;2022-12-29T04:12:56;17.70;;;7.38;;
43554;SDS011;35085;40.398;-3.702;2022-12-29T04:23:27;17.60;;;7.20;;
43554;SDS011;35085;40.398;-3.702;2022-12-29T04:33:38;16.77;;;7.72;;
43554;SDS011;35085;40.398;-3.702;2022-12-29T04:44:11;12.93;;;6.45;;
43554;SDS011;35085;40.398;-3.702;2022-12-29T04:54:42;13.93;;;5.78;;
43554;SDS011;35085;40.398;-3.702;2022-12-29T05:05:11;20.10;;;6.32;;
43554;SDS011;35085;40.398;-3.702;2022-12-29T05:15:48;13.45;;;5.78;;
43554;SDS011;35085;40.398;-3.702;2022-12-29T05:26:37;14.00;;;5.30;;
43554;SDS011;35085;40.398;-3.702;2022-12-29T05:37:14;12.98;;;5.65;;
43554;SDS011;35085;40.398;-3.702;2022-12-29T05:47:45;14.02;;;5.80;;
43554;SDS011;35085;40.398;-3.702;2022-12-29T05:58:32;10.57;;;4.32;;
43554;SDS011;35085;40.398;-3.702;2022-12-29T06:09:02;14.15;;;4.10;;
43554;SDS011;35085;40.398;-3.702;2022-12-29T06:19:13;11.63;;;4.03;;
43554;SDS011;35085;40.398;-3.702;2022-12-29T06:29:42;10.77;;;3.53;;
43554;SDS011;35085;40.398;-3.702;2022-12-29T06:39:52;12.07;;;4.28;;
43554;SDS011;35085;40.398;-3.702;2022-12-29T06:50:37;10.57;;;4.68;;
43554;SDS011;35085;40.398;-3.702;2022-12-29T07:00:46;20.23;;;6.68;;
43554;SDS011;35085;40.398;-3.702;2022-12-29T07:11:16;15.35;;;4.88;;
43554;SDS011;35085;40.398;-3.702;2022-12-29T07:21:25;11.88;;;5.18;;
43554;SDS011;35085;40.398;-3.702;2022-12-29T07:31:55;13.50;;;4.88;;
43554;SDS011;35085;40.398;-3.702;2022-12-29T07:42:03;12.57;;;4.82;;
43554;SDS011;35085;40.398;-3.702;2022-12-29T07:52:38;16.42;;;5.55;;
43554;SDS011;35085;40.398;-3.702;2022-12-29T08:02:47;14.65;;;6.68;;
43554;SDS011;35085;40.398;-3.702;2022-12-29T08:13:17;17.67;;;6.38;;
43554;SDS011;35085;40.398;-3.702;2022-12-29T08:23:25;15.10;;;5.65;;
43554;SDS011;35085;40.398;-3.702;2022-12-29T08:33:54;10.50;;;3.70;;
43554;SDS011;35085;40.398;-3.702;2022-12-29T08:44:03;10.35;;;4.15;;
43554;SDS011;35085;40.398;-3.702;2022-12-29T08:54:33;6.78;;;3.53;;
43554;SDS011;35085;40.398;-3.702;2022-12-29T09:04:42;8.88;;;3.20;;
43554;SDS011;35085;40.398;-3.702;2022-12-29T09:15:10;8.43;;;2.33;;
43554;SDS011;35085;40.398;-3.702;2022-12-29T09:25:20;8.18;;;2.67;;
43554;SDS011;35085;40.398;-3.702;2022-12-29T09:35:52;4.80;;;1.80;;
43554;SDS011;35085;40.398;-3.702;2022-12-29T09:56:38;7.00;;;2.30;;
43554;SDS011;35085;40.398;-3.702;2022-12-29T10:17:36;3.47;;;1.70;;
43554;SDS011;35085;40.398;-3.702;2022-12-29T10:27:48;5.15;;;2.38;;
43554;SDS011;35085;40.398;-3.702;2022-12-29T10:48:31;8.38;;;1.92;;
43554;SDS011;35085;40.398;-3.702;2022-12-29T10:59:03;12.23;;;1.83;;
43554;SDS011;35085;40.398;-3.702;2022-12-29T11:09:20;9.75;;;1.85;;
43554;SDS011;35085;40.398;-3.702;2022-12-29T11:19:50;3.42;;;1.58;;
43554;SDS011;35085;40.398;-3.702;2022-12-29T11:29:59;8.05;;;1.67;;
43554;SDS011;35085;40.398;-3.702;2022-12-29T11:40:37;5.82;;;1.40;;
43554;SDS011;35085;40.398;-3.702;2022-12-29T12:01:27;7.60;;;2.50;;
43554;SDS011;35085;40.398;-3.702;2022-12-29T12:11:38;5.35;;;1.88;;
43554;SDS011;35085;40.398;-3.702;2022-12-29T12:22:29;3.95;;;1.40;;
43554;SDS011;35085;40.398;-3.702;2022-12-29T12:53:29;3.70;;;1.35;;
43554;SDS011;35085;40.398;-3.702;2022-12-29T13:46:14;3.97;;;1.05;;
43554;SDS011;35085;40.398;-3.702;2022-12-29T14:07:04;4.30;;;1.20;;
43554;SDS011;35085;40.398;-3.702;2022-12-29T14:17:16;4.07;;;1.35;;
43554;SDS011;35085;40.398;-3.702;2022-12-29T14:27:52;2.45;;;1.40;;
43554;SDS011;35085;40.398;-3.702;2022-12-29T14:38:05;4.60;;;1.17;;
43554;SDS011;35085;40.398;-3.702;2022-12-29T14:48:37;2.70;;;0.93;;
43554;SDS011;35085;40.398;-3.702;2022-12-29T14:58:56;6.75;;;1.92;;
43554;SDS011;35085;40.398;-3.702;2022-12-29T15:09:33;2.45;;;0.95;;
43554;SDS011;35085;40.398;-3.702;2022-12-29T15:19:44;2.08;;;1.20;;
43554;SDS011;35085;40.398;-3.702;2022-12-29T15:30:12;2.00;;;1.00;;
43554;SDS011;35085;40.398;-3.702;2022-12-29T15:50:54;4.18;;;1.40;;
43554;SDS011;35085;40.398;-3.702;2022-12-29T16:01:03;4.63;;;0.98;;
43554;SDS011;35085;40.398;-3.702;2022-12-29T16:11:43;2.67;;;1.13;;
43554;SDS011;35085;40.398;-3.702;2022-12-29T16:22:22;3.83;;;1.42;;
43554;SDS011;35085;40.398;-3.702;2022-12-29T16:32:32;3.45;;;1.13;;
43554;SDS011;35085;40.398;-3.702;2022-12-29T16:43:02;3.90;;;1.17;;
43554;SDS011;35085;40.398;-3.702;2022-12-29T17:03:53;2.47;;;1.25;;
43554;SDS011;35085;40.398;-3.702;2022-12-29T17:14:02;2.38;;;0.80;;
43554;SDS011;35085;40.398;-3.702;2022-12-29T17:24:31;2.15;;;1.08;;
43554;SDS011;35085;40.398;-3.702;2022-12-29T17:34:40;2.13;;;1.15;;
43554;SDS011;35085;40.398;-3.702;2022-12-29T17:45:18;2.90;;;1.52;;
43554;SDS011;35085;40.398;-3.702;2022-12-29T17:55:28;3.65;;;1.23;;
43554;SDS011;35085;40.398;-3.702;2022-12-29T18:05:57;2.53;;;1.40;;
43554;SDS011;35085;40.398;-3.702;2022-12-29T18:16:06;4.97;;;2.72;;
43554;SDS011;35085;40.398;-3.702;2022-12-29T18:26:35;3.60;;;2.15;;
43554;SDS011;35085;40.398;-3.702;2022-12-29T18:36:44;4.78;;;1.98;;
43554;SDS011;35085;40.398;-3.702;2022-12-29T18:47:13;4.75;;;2.25;;
43554;SDS011;35085;40.398;-3.702;2022-12-29T18:57:22;4.22;;;2.42;;
43554;SDS011;35085;40.398;-3.702;2022-12-29T19:07:51;2.25;;;1.20;;
43554;SDS011;35085;40.398;-3.702;2022-12-29T19:18:02;2.33;;;0.95;;
43554;SDS011;35085;40.398;-3.702;2022-12-29T19:28:33;3.72;;;1.90;;
43554;SDS011;35085;40.398;-3.702;2022-12-29T19:38:41;6.22;;;1.80;;
43554;SDS011;35085;40.398;-3.702;2022-12-29T19:49:11;5.72;;;2.00;;
43554;SDS011;35085;40.398;-3.702;2022-12-29T19:59:20;5.55;;;1.25;;
43554;SDS011;35085;40.398;-3.702;2022-12-29T20:09:49;2.72;;;1.38;;
43554;SDS011;35085;40.398;-3.702;2022-12-29T20:19:58;3.40;;;1.80;;
43554;SDS011;35085;40.398;-3.702;2022-12-29T20:30:28;4.90;;;2.50;;
43554;SDS011;35085;40.398;-3.702;2022-12-29T20:40:37;4.85;;;1.95;;
43554;SDS011;35085;40.398;-3.702;2022-12-29T20:51:07;7.70;;;1.95;;
43554;SDS011;35085;40.398;-3.702;2022-12-29T21:01:17;6.85;;;2.22;;
43554;SDS011;35085;40.398;-3.702;2022-12-29T21:11:48;15.13;;;2.20;;
43554;SDS011;35085;40.398;-3.702;2022-12-29T21:21:57;11.43;;;2.38;;
43554;SDS011;35085;40.398;-3.702;2022-12-29T21:32:28;6.00;;;2.33;;
43554;SDS011;35085;40.398;-3.702;2022-12-29T21:42:37;7.75;;;1.48;;
43554;SDS011;35085;40.398;-3.702;2022-12-29T21:53:09;9.55;;;1.90;;
43554;SDS011;35085;40.398;-3.702;2022-12-29T22:03:18;4.22;;;1.45;;
43554;SDS011;35085;40.398;-3.702;2022-12-29T22:14:06;8.55;;;2.78;;
43554;SDS011;35085;40.398;-3.702;2022-12-29T22:24:16;9.23;;;2.22;;
43554;SDS011;35085;40.398;-3.702;2022-12-29T22:34:47;7.72;;;1.92;;
43554;SDS011;35085;40.398;-3.702;2022-12-29T22:44:56;11.43;;;2.38;;
43554;SDS011;35085;40.398;-3.702;2022-12-29T22:55:25;10.35;;;2.13;;
43554;SDS011;35085;40.398;-3.702;2022-12-29T23:05:35;10.57;;;2.10;;
43554;SDS011;35085;40.398;-3.702;2022-12-29T23:16:04;10.73;;;2.28;;
43554;SDS011;35085;40.398;-3.702;2022-12-29T23:26:13;10.95;;;2.58;;
43554;SDS011;35085;40.398;-3.702;2022-12-29T23:36:43;10.70;;;2.38;;
43554;SDS011;35085;40.398;-3.702;2022-12-29T23:46:54;13.00;;;2.50;;
43554;SDS011;35085;40.398;-3.702;2022-12-29T23:57:22;13.02;;;3.67;;
